Aero Club Brugge

Drongengoedweg poort 4 - Vliegveld Ursel

Start Volgende Theorie Cursus ULM: 19-05-2018 (Inschrijven)

"Piloot voor 1 dag" 21 en 22 April 2018 (Inschrijven)


Image

Geschiedenis

Zoals zoveel andere vliegclubs, verspreid over de gehele wereld, vind je ook in onze club mensen die zich verbonden voelen door hun passie en enthousiasme voor het vliegen... (Meer)

Image

Piloot voor 1 dag

Ervaar hoe het is om een vliegtuig te besturen.Tijdens deze dag maak je kennis met het vliegveld, de theorie en het vliegen zelf (GRATIS voor startende leerlingen).... (Meer)

Image

Activiteiten "Pilot's Bar"

 28-07-2018 : Summer BBQ
(Volg de link voor "alle" activiteiten)

Onze Opleidingen

ACB biedt opleidingen op maat naar ieders wens en budget.
Bekijk hieronder de mogelijkheden die we aanbieden.

Image

ULM Opleiding

*Opleiding op hoogste niveau.

*Voor wie houdt van sportief vliegen.

*Financieel spreidbaar.

*Advanced Training Course

Image

PPL Opleiding

*Opleiding door beroepspiloten.

*Democratische prijzen.

*Financieel spreidbaar.

* Eigen ATO.
Image

Lidmaatschap

Een gezellige en ongebonden clubsfeer. Ervaringen uitwisselen met collega-vliegers. Democratische prijzen aan de bar. Leuke uitstappen en evenementen...

(Meer info hier)

METARS :

2018/04/19 09:20 EBOS 190920Z 16009KT CAVOK 20/10 Q1025 NOSIG
2018/04/19 09:20 EBBR 190920Z 15008KT CAVOK 22/07 Q1026 NOSIG
2018/04/19 09:20 EBAW 190920Z 15007KT 110V170 CAVOK 22/11 Q1026 NOSIG

Wind Calculator * ACB Windy

Image

SPONSORS :

  • Ubicum - IT Solutions
  • Wetenschapspark 1 - 8400 Oostende
  • Hormann - Belgium
  • Professionele industrie- en prive poorten
  • Van Hulle Johan Voeg- en Restauratiewerken
  • Lindestraat 26 - 9980 Maldegem
  • Citro├źn G. Kerkaert
  • Sijseelsesteenweg 3 - 8340 Vivenkapelle - Damme
  • E.G.I Bvba
  • Kluizestraat 3 - 9910 Knesselare
  • Esqual - Arsi AB
  • Travergatan 2 - 441 38 Alingsas - Sweden